Terminal Aerodrome Forecast
Issued by NWS

Home | Current Version | Previous Version | Text Only | Print | Product List | Glossary Off
Versions: 1 2 3 4 5 6 7 8 9 10 11 12 13 14 15 16 17 18 19 20 21 22 23 24 25 26 27 28 29

990
FTUS43 KLOT 221516 AAA
TAFMDW
TAF AMD
KMDW 221516Z 2215/2312 22014G22KT P6SM SCT050 BKN200
     FM230100 21012KT P6SM SCT020 BKN050
     FM230600 23012KT P6SM -SHRA SCT010 BKN020 BKN050
      TEMPO 2306/2309 4SM -TSRA BKN015CB BKN050=

USA.gov is the U.S. government's official web portal to all federal, state and local government web resources and services.